createdAt,value
2023-04-16T00:01:03.240Z,11.08
2023-04-16T00:02:27.721Z,11.08
2023-04-16T00:03:52.720Z,11.08
2023-04-16T00:05:15.335Z,11.06
2023-04-16T00:06:38.578Z,11.07
2023-04-16T00:07:41.096Z,11.08
2023-04-16T00:08:44.586Z,11.12
2023-04-16T00:09:47.576Z,11.16
2023-04-16T00:10:50.821Z,11.20
2023-04-16T00:11:53.980Z,11.23
2023-04-16T00:12:56.229Z,11.28
2023-04-16T00:13:59.408Z,11.30
2023-04-16T00:15:01.722Z,11.32
2023-04-16T00:16:05.316Z,11.35
2023-04-16T00:17:07.701Z,11.36
2023-04-16T00:18:10.856Z,11.39
2023-04-16T00:19:14.428Z,11.39
2023-04-16T00:20:17.795Z,11.41
2023-04-16T00:21:20.269Z,11.39
2023-04-16T00:22:32.405Z,11.39
2023-04-16T00:23:34.907Z,11.40
2023-04-16T00:24:40.759Z,11.39
2023-04-16T00:25:43.628Z,11.38
2023-04-16T00:26:53.510Z,11.37
2023-04-16T00:27:57.224Z,11.38
2023-04-16T00:29:05.609Z,11.36
2023-04-16T00:30:08.757Z,11.37
2023-04-16T00:31:12.898Z,11.35
2023-04-16T00:32:18.930Z,11.35
2023-04-16T00:33:22.800Z,11.33
2023-04-16T00:34:26.626Z,11.35
2023-04-16T00:35:29.862Z,11.35
2023-04-16T00:36:32.948Z,11.33
2023-04-16T00:37:36.334Z,11.33
2023-04-16T00:38:46.745Z,11.34
2023-04-16T00:39:55.026Z,11.34
2023-04-16T00:40:58.909Z,11.33
2023-04-16T00:42:02.458Z,11.30
2023-04-16T00:43:06.694Z,11.30
2023-04-16T00:44:09.479Z,11.30
2023-04-16T00:45:13.247Z,11.28
2023-04-16T00:46:16.743Z,11.28
2023-04-16T00:47:22.244Z,11.28
2023-04-16T00:48:27.948Z,11.26
2023-04-16T00:49:32.949Z,11.27
2023-04-16T00:50:35.491Z,11.28
2023-04-16T00:51:39.324Z,11.28
2023-04-16T00:52:41.767Z,11.30
2023-04-16T00:53:47.023Z,11.32
2023-04-16T00:54:49.852Z,11.30
2023-04-16T00:55:54.823Z,11.30
2023-04-16T00:57:03.679Z,11.31
2023-04-16T00:58:06.985Z,11.31
2023-04-16T00:59:10.781Z,11.31
2023-04-16T01:00:15.019Z,11.31
